Monday, January 26, 2015
16:27 UTC
  |  Log In   |  Register Free
Airport Search:

Talladega Municipal Airport
(KASN)

Talladega Municipal Airport Diagram
No Airport Diagram Available

FAA data valid effective January 08, 2015 - March 05, 2015 (unless otherwise noted).

 
 
 
 
 
 
 
 
 
 
 
 
 
 

Current Aviation Weather for Talladega Municipal Airport (KASN)

The most recent METAR observation for KASN was updated at: 1607
METAR Summary (Translated METAR)
KASN
261555Z AUTO 30011KT 10SM BKN023 OVC031 06/02 A2998 RMK AO2 T00560023
KANB
261601Z AUTO 27009G18KT 10SM SCT016 BKN023 OVC028 05/02 A2996 RMK AO2 T00500017
(9.7 nm NE from KASN)
KGAD
261555Z 32016G21KT 10SM BKN019 OVC028 04/M01 A2999 RMK AO1
(24.3 nm NW from KASN)
TAF Summary (Translated TAF)
KASN
(9.7 nm SW from KANB)
261122Z 2612/2712 29012G18KT P6SM OVC015 FM262100 28007KT P6SM SCT250 FM270900 22002KT P6SM BKN040
KANB
261529Z 2615/2712 30012G18KT P6SM OVC015 FM262100 29007KT P6SM SCT250 FM270900 22002KT P6SM BKN040
  Airport Weather Conditions for KASN

 Current Weather at ASN
42° F
Overcast
Northwest winds at 12.7 mph
ASN NOAA Radar

Pressure: 29.98 in
Humidity: 80%
Wind: Northwest at 12.7 MPH (11 KT)
Dew Point: 36.1°F
Visibility: 10.00 mi


Airport Weather Forecast for KASN

Translated METAR and TAF for KANB
Translated METAR for KANB (1628 UTC 26 January 2015)
found at http://aviationweather.gov/adds/metars/
 
METAR text: KANB 261601Z AUTO 27009G18KT 10SM SCT016 BKN023 OVC028 05/02 A2996 RMK AO2 T00500017
Conditions at: KANB (ANNISTON , AL, US) observed 1601 UTC 26 January 2015
Temperature: 5.0°C (41°F)
Dewpoint: 1.7°C (35°F) [RH = 79%]
Pressure (altimeter): 29.96 inches Hg (1014.6 mb)
Winds: from the W (270 degrees) at 10 MPH (9 knots; 4.7 m/s)
gusting to 21 MPH (18 knots; 9.4 m/s)
Visibility: 10 or more miles (16+ km)
Ceiling: 2300 feet AGL
Clouds: scattered clouds at 1600 feet AGL
broken clouds at 2300 feet AGL
overcast cloud deck at 2800 feet AGL
Weather: automated observation with no human augmentation;
there may or may not be significant weather present at this time
Translated TAF for KANB
Forecast for: KANB (ANNISTON , AL, US)
TAF Text: KANB 261529Z 2615/2712 30012G18KT P6SM OVC015
Forecast period: 1500 to 2100 UTC 26 January 2015
Forecast type: FROM: standard forecast or significant change
Winds: from the WNW (300 degrees) at 14 MPH (12 knots; 6.2 m/s)
gusting to 21 MPH (18 knots; 9.4 m/s)
Visibility: 6 or more miles (10+ km)
Ceiling: 1500 feet AGL
Clouds: overcast cloud deck at 1500 feet AGL
Weather: no significant weather forecast for this period
TAF Text: FM262100 29007KT P6SM SCT250
Forecast period: 2100 UTC 26 January 2015 to 0900 UTC 27 January 2015
Forecast type: FROM: standard forecast or significant change
Winds: from the WNW (290 degrees) at 8 MPH (7 knots; 3.6 m/s)
Visibility: 6 or more miles (10+ km)
Clouds: scattered clouds at 25000 feet AGL
Weather: no significant weather forecast for this period
TAF Text: FM270900 22002KT P6SM BKN040
Forecast period: 0900 to 1200 UTC 27 January 2015
Forecast type: FROM: standard forecast or significant change
Winds: from the SW (220 degrees) at 2 MPH (2 knots; 1.0 m/s)
Visibility: 6 or more miles (10+ km)
Ceiling: 4000 feet AGL
Clouds: broken clouds at 4000 feet AGL
Weather: no significant weather forecast for this period

Find All Airport Services Find A Hotel Find A Rental Car Find A Golf Course Find A Restaurant $100 Hamburger



FBO's on the Field
FBO Company Facility Photos Services Transportation Aviation Fuel Prices: Prices include tax
Catering Weather Repair Courtesy Rental Type 100LL JetA JetA+ MOGAS 8087
 
Talladega Municipal

This FBO has not yet been rated
FS:Phillips 66
Last Updated: Dec-22
Login to update fuel prices
SS:
Contact Talladega MunicipalMore FBO Information
 
Add another FBO Facility Photos Catering Weather Repair Courtesy Rental Type 100LL JetA JetA+ MOGAS 8087
Services Transportation Aviation Fuel Prices: Prices include tax


model-print
model-print
model-print
model-print